createdAt,value
2019-02-08T00:02:26.644Z,8.70
2019-02-08T00:04:59.094Z,7.90
2019-02-08T00:07:33.256Z,8.70
2019-02-08T00:10:07.340Z,10.00
2019-02-08T00:12:38.574Z,11.00
2019-02-08T00:15:13.056Z,9.97
2019-02-08T00:17:45.954Z,9.10
2019-02-08T00:20:17.300Z,10.23
2019-02-08T00:22:52.814Z,7.63
2019-02-08T00:25:27.317Z,7.43
2019-02-08T00:27:58.963Z,8.57
2019-02-08T00:30:33.911Z,10.67
2019-02-08T00:33:06.760Z,9.60
2019-02-08T00:35:40.183Z,9.50
2019-02-08T00:38:14.162Z,8.10
2019-02-08T00:40:47.209Z,8.00
2019-02-08T00:43:19.210Z,9.07
2019-02-08T00:45:50.492Z,9.67
2019-02-08T00:48:24.272Z,8.10
2019-02-08T00:50:58.272Z,9.90
2019-02-08T00:53:33.484Z,9.03
2019-02-08T00:56:06.700Z,8.83
2019-02-08T00:58:39.944Z,9.60
2019-02-08T01:01:13.341Z,8.03
2019-02-08T01:03:47.717Z,8.00
2019-02-08T01:06:20.217Z,7.37
2019-02-08T01:08:53.341Z,7.10
2019-02-08T01:11:27.332Z,8.20
2019-02-08T01:14:00.321Z,6.70
2019-02-08T01:16:33.338Z,8.23
2019-02-08T01:19:05.355Z,8.97
2019-02-08T01:21:36.658Z,9.23
2019-02-08T01:24:07.974Z,6.73
2019-02-08T01:26:39.542Z,7.07
2019-02-08T01:29:12.506Z,6.77
2019-02-08T01:31:48.090Z,7.70
2019-02-08T01:34:19.459Z,7.80
2019-02-08T01:36:53.315Z,8.23
2019-02-08T01:39:24.528Z,7.77
2019-02-08T01:41:58.511Z,7.00
2019-02-08T01:44:31.487Z,8.70
2019-02-08T01:47:03.380Z,7.83
2019-02-08T01:49:36.538Z,7.70
2019-02-08T01:52:12.072Z,7.60
2019-02-08T01:54:45.104Z,8.17
2019-02-08T01:57:16.319Z,7.53
2019-02-08T01:59:49.121Z,8.23
2019-02-08T02:02:21.542Z,8.27
2019-02-08T02:04:55.564Z,6.70
2019-02-08T02:07:26.870Z,8.10
2019-02-08T02:09:59.850Z,8.50
2019-02-08T02:12:33.476Z,7.67
2019-02-08T02:15:07.767Z,7.77
2019-02-08T02:17:39.247Z,7.37
2019-02-08T02:20:13.167Z,7.00
2019-02-08T02:22:46.712Z,8.67
2019-02-08T02:25:22.306Z,8.23
2019-02-08T02:27:54.753Z,7.57
2019-02-08T02:30:32.701Z,7.47
2019-02-08T02:33:07.485Z,6.70
2019-02-08T02:35:41.507Z,8.30
2019-02-08T02:38:13.894Z,6.80
2019-02-08T02:40:45.797Z,7.67
2019-02-08T02:43:17.769Z,6.83
2019-02-08T02:45:49.506Z,7.90
2019-02-08T02:48:20.746Z,6.23
2019-02-08T02:50:53.166Z,5.30
2019-02-08T02:53:25.934Z,6.20
2019-02-08T02:55:59.956Z,5.97
2019-02-08T02:58:33.146Z,6.27
2019-02-08T03:01:06.486Z,5.50
2019-02-08T03:03:39.909Z,6.30
2019-02-08T03:06:12.516Z,5.37
2019-02-08T03:08:43.781Z,6.87
2019-02-08T03:11:19.486Z,4.60
2019-02-08T03:17:15.022Z,5.27
2019-02-08T03:19:47.844Z,5.07
2019-02-08T03:22:19.092Z,4.73
2019-02-08T03:24:50.341Z,4.30
2019-02-08T03:27:25.130Z,4.43
2019-02-08T03:29:58.073Z,4.03
2019-02-08T03:32:32.049Z,4.30
2019-02-08T03:35:07.565Z,5.03
2019-02-08T03:37:39.919Z,4.00
2019-02-08T03:40:15.789Z,4.43
2019-02-08T03:42:49.925Z,5.40
2019-02-08T03:45:23.402Z,4.43
2019-02-08T03:47:56.088Z,3.83
2019-02-08T03:50:30.349Z,4.80
2019-02-08T03:53:04.284Z,4.20
2019-02-08T03:55:36.877Z,4.00
2019-02-08T03:58:10.162Z,3.70
2019-02-08T04:00:49.901Z,3.33
2019-02-08T04:03:23.038Z,4.17
2019-02-08T04:05:58.632Z,4.03
2019-02-08T04:08:31.077Z,3.63
2019-02-08T04:11:02.479Z,4.03
2019-02-08T04:13:36.263Z,3.53
2019-02-08T04:16:10.025Z,4.03
2019-02-08T04:18:42.522Z,3.60
2019-02-08T04:21:15.223Z,3.23
2019-02-08T04:23:50.253Z,3.80
2019-02-08T04:26:23.288Z,3.60
2019-02-08T04:28:58.127Z,3.80
2019-02-08T04:31:30.348Z,3.70
2019-02-08T04:34:01.925Z,4.03
2019-02-08T04:36:34.745Z,5.10
2019-02-08T04:39:08.755Z,7.37
2019-02-08T04:41:42.513Z,12.57
2019-02-08T04:44:16.259Z,15.30
2019-02-08T04:46:49.675Z,14.00
2019-02-08T04:49:22.525Z,13.30
2019-02-08T04:51:53.748Z,13.07
2019-02-08T04:54:24.954Z,12.70
2019-02-08T04:57:13.922Z,14.10
2019-02-08T04:59:45.238Z,12.30
2019-02-08T05:02:19.932Z,14.43
2019-02-08T05:04:53.994Z,14.87
2019-02-08T05:07:26.389Z,12.70
2019-02-08T05:10:00.554Z,11.20
2019-02-08T05:12:31.803Z,11.00
2019-02-08T05:15:05.069Z,9.60
2019-02-08T05:17:38.080Z,10.93
2019-02-08T05:20:12.250Z,8.40
2019-02-08T05:22:46.336Z,10.77
2019-02-08T05:25:18.611Z,9.93
2019-02-08T05:27:54.154Z,9.63
2019-02-08T05:30:27.709Z,10.93
2019-02-08T05:33:01.692Z,9.67
2019-02-08T05:35:35.546Z,11.63
2019-02-08T05:38:09.588Z,11.27
2019-02-08T05:40:43.601Z,10.90
2019-02-08T05:43:14.810Z,11.17
2019-02-08T05:45:46.085Z,10.47
2019-02-08T05:48:21.354Z,11.80
2019-02-08T05:50:53.447Z,13.57
2019-02-08T05:53:26.044Z,12.37
2019-02-08T05:56:00.881Z,11.50
2019-02-08T05:58:32.124Z,13.03
2019-02-08T06:01:06.725Z,12.47
2019-02-08T06:03:40.639Z,11.43
2019-02-08T06:06:14.612Z,11.70
2019-02-08T06:08:50.780Z,10.70
2019-02-08T06:11:23.713Z,12.60
2019-02-08T06:13:59.327Z,11.37
2019-02-08T06:16:31.570Z,10.30
2019-02-08T06:19:06.346Z,9.23
2019-02-08T06:21:37.643Z,9.53
2019-02-08T06:24:09.804Z,11.60
2019-02-08T06:26:42.735Z,10.20
2019-02-08T06:29:16.908Z,10.43
2019-02-08T06:31:48.515Z,9.67
2019-02-08T06:34:19.744Z,10.90
2019-02-08T06:36:53.834Z,9.73
2019-02-08T06:39:25.172Z,11.87
2019-02-08T06:41:58.801Z,12.80
2019-02-08T06:44:31.980Z,10.13
2019-02-08T06:47:04.959Z,10.57
2019-02-08T06:49:37.404Z,14.00
2019-02-08T06:52:11.583Z,31.80
2019-02-08T06:54:42.828Z,36.73
2019-02-08T06:57:30.737Z,36.57
2019-02-08T07:00:10.824Z,22.70
2019-02-08T07:03:12.538Z,25.67
2019-02-08T07:06:01.623Z,25.20
2019-02-08T07:08:41.313Z,19.70
2019-02-08T07:11:22.189Z,21.93
2019-02-08T07:14:22.435Z,12.77
2019-02-08T07:17:22.011Z,24.30
2019-02-08T07:20:15.609Z,19.30
2019-02-08T07:23:04.424Z,19.70
2019-02-08T07:26:01.973Z,22.47
2019-02-08T07:28:48.544Z,15.67
2019-02-08T07:31:45.505Z,14.33
2019-02-08T07:34:34.818Z,13.83
2019-02-08T07:37:26.147Z,13.23
2019-02-08T07:40:18.492Z,13.43
2019-02-08T07:43:10.141Z,17.20
2019-02-08T07:46:08.326Z,15.73
2019-02-08T07:48:54.871Z,16.57
2019-02-08T07:51:56.226Z,13.97
2019-02-08T07:54:42.249Z,12.47
2019-02-08T07:57:24.088Z,15.23
2019-02-08T08:00:26.505Z,11.33
2019-02-08T08:03:20.948Z,14.33
2019-02-08T08:06:13.275Z,12.30
2019-02-08T08:09:08.126Z,11.90
2019-02-08T08:11:55.599Z,11.03
2019-02-08T08:14:45.858Z,11.60
2019-02-08T08:17:39.121Z,10.70
2019-02-08T08:20:34.173Z,10.87
2019-02-08T08:23:15.017Z,12.37
2019-02-08T08:26:15.466Z,13.07
2019-02-08T08:29:02.280Z,12.40
2019-02-08T08:31:50.000Z,11.77
2019-02-08T08:34:55.662Z,8.63
2019-02-08T08:38:04.368Z,10.90
2019-02-08T08:41:19.787Z,9.53
2019-02-08T08:44:34.816Z,9.77
2019-02-08T08:47:56.533Z,9.87
2019-02-08T08:51:21.971Z,9.20
2019-02-08T08:54:36.804Z,8.03
2019-02-08T08:57:43.243Z,8.00
2019-02-08T09:00:35.551Z,8.30
2019-02-08T09:03:43.227Z,8.30
2019-02-08T09:06:53.230Z,8.00
2019-02-08T09:10:23.414Z,8.47
2019-02-08T09:13:21.736Z,8.43
2019-02-08T09:16:24.870Z,9.33
2019-02-08T09:19:39.902Z,10.90
2019-02-08T09:23:06.722Z,8.30
2019-02-08T09:25:57.525Z,8.43
2019-02-08T09:29:23.763Z,8.97
2019-02-08T09:32:38.366Z,7.50
2019-02-08T09:36:00.957Z,8.70
2019-02-08T09:39:16.878Z,8.50
2019-02-08T09:42:49.807Z,8.87
2019-02-08T09:46:02.299Z,8.13
2019-02-08T09:49:23.517Z,7.20
2019-02-08T09:52:55.719Z,8.47
2019-02-08T09:56:06.185Z,6.37
2019-02-08T09:59:13.188Z,7.50
2019-02-08T10:02:31.806Z,7.17
2019-02-08T10:05:41.468Z,8.80
2019-02-08T10:08:57.486Z,11.20
2019-02-08T10:12:22.544Z,9.13
2019-02-08T10:15:49.958Z,6.60
2019-02-08T10:18:55.759Z,6.60
2019-02-08T10:22:05.568Z,8.37
2019-02-08T10:25:40.196Z,7.17
2019-02-08T10:28:50.158Z,5.63
2019-02-08T10:32:17.706Z,6.40
2019-02-08T10:35:21.589Z,5.27
2019-02-08T10:38:32.683Z,4.97
2019-02-08T10:41:42.629Z,9.00
2019-02-08T10:45:13.288Z,5.80
2019-02-08T10:48:36.430Z,4.90
2019-02-08T10:51:53.319Z,5.30
2019-02-08T10:55:00.852Z,4.60
2019-02-08T10:58:28.338Z,4.50
2019-02-08T11:01:45.967Z,4.80
2019-02-08T11:05:04.526Z,4.07
2019-02-08T11:08:13.629Z,4.30
2019-02-08T11:11:23.512Z,4.23
2019-02-08T11:14:44.560Z,4.20
2019-02-08T11:17:58.553Z,4.33
2019-02-08T11:20:32.134Z,4.10
2019-02-08T11:23:05.254Z,3.30
2019-02-08T11:25:37.282Z,3.77
2019-02-08T11:28:08.607Z,3.90
2019-02-08T11:30:39.801Z,4.57
2019-02-08T11:33:13.311Z,4.43
2019-02-08T11:35:47.151Z,4.53
2019-02-08T11:38:25.069Z,3.63
2019-02-08T11:40:58.321Z,3.17
2019-02-08T11:43:29.693Z,3.73
2019-02-08T11:46:03.203Z,3.50
2019-02-08T11:48:36.020Z,3.30
2019-02-08T11:51:08.222Z,4.03
2019-02-08T11:53:41.777Z,2.93
2019-02-08T11:56:13.427Z,3.40
2019-02-08T11:58:47.284Z,3.60
2019-02-08T12:01:19.655Z,3.90
2019-02-08T12:03:55.190Z,3.00
2019-02-08T12:06:29.157Z,3.63
2019-02-08T12:09:01.350Z,8.20
2019-02-08T12:11:34.376Z,5.17
2019-02-08T12:14:09.933Z,3.97
2019-02-08T12:16:41.119Z,6.53
2019-02-08T12:19:12.588Z,15.50
2019-02-08T12:21:43.876Z,4.00
2019-02-08T12:24:15.101Z,4.37
2019-02-08T12:26:46.442Z,2.67
2019-02-08T12:29:19.428Z,6.80
2019-02-08T12:31:53.480Z,5.07
2019-02-08T12:34:27.256Z,3.10
2019-02-08T12:37:01.321Z,3.47
2019-02-08T12:39:35.313Z,4.10
2019-02-08T12:42:06.532Z,4.60
2019-02-08T12:44:37.823Z,5.87
2019-02-08T12:47:13.172Z,2.90
2019-02-08T12:49:45.390Z,3.60
2019-02-08T12:52:19.431Z,3.03
2019-02-08T12:54:53.444Z,2.90
2019-02-08T12:57:28.954Z,3.33
2019-02-08T13:00:01.676Z,3.67
2019-02-08T13:02:36.181Z,3.80
2019-02-08T13:05:12.198Z,3.37
2019-02-08T13:07:43.633Z,3.13
2019-02-08T13:10:19.247Z,2.93
2019-02-08T13:12:52.484Z,4.83
2019-02-08T13:15:28.847Z,3.70
2019-02-08T13:18:03.114Z,3.67
2019-02-08T13:20:35.874Z,3.07
2019-02-08T13:23:07.100Z,4.43
2019-02-08T13:25:38.378Z,5.70
2019-02-08T13:28:12.532Z,4.17
2019-02-08T13:30:45.670Z,2.30
2019-02-08T13:33:16.919Z,3.40
2019-02-08T13:35:50.789Z,3.73
2019-02-08T13:38:24.641Z,3.80
2019-02-08T13:40:58.640Z,5.47
2019-02-08T13:43:29.946Z,4.17
2019-02-08T13:46:01.132Z,3.50
2019-02-08T13:48:34.850Z,2.80
2019-02-08T13:51:06.177Z,4.00
2019-02-08T13:53:37.620Z,2.40
2019-02-08T13:56:10.771Z,8.37
2019-02-08T13:58:43.858Z,4.40
2019-02-08T14:01:15.985Z,2.70
2019-02-08T14:03:50.226Z,3.30
2019-02-08T14:06:25.287Z,5.00
2019-02-08T14:08:59.419Z,3.70
2019-02-08T14:11:33.447Z,3.57
2019-02-08T14:14:06.226Z,9.87
2019-02-08T14:16:38.313Z,3.80
2019-02-08T14:19:11.217Z,3.43
2019-02-08T14:21:45.415Z,3.17
2019-02-08T14:24:20.458Z,2.97
2019-02-08T14:26:54.528Z,3.47
2019-02-08T14:29:26.706Z,3.47
2019-02-08T14:31:58.557Z,3.70
2019-02-08T14:34:30.863Z,3.73
2019-02-08T14:37:04.776Z,3.60
2019-02-08T14:39:36.012Z,4.03
2019-02-08T14:42:07.717Z,3.33
2019-02-08T14:44:40.706Z,2.40
2019-02-08T14:47:12.373Z,4.07
2019-02-08T14:49:46.031Z,7.27
2019-02-08T14:52:17.236Z,5.90
2019-02-08T14:54:51.073Z,5.00
2019-02-08T14:57:25.104Z,4.90
2019-02-08T14:59:59.228Z,6.00
2019-02-08T15:02:30.883Z,5.30
2019-02-08T15:05:08.287Z,4.00
2019-02-08T15:07:40.996Z,5.80
2019-02-08T15:10:20.148Z,5.93
2019-02-08T15:12:51.987Z,4.93
2019-02-08T15:15:26.538Z,6.47
2019-02-08T15:18:01.869Z,4.10
2019-02-08T15:20:34.249Z,5.10
2019-02-08T15:23:08.383Z,3.27
2019-02-08T15:25:39.679Z,2.63
2019-02-08T15:28:13.272Z,2.70
2019-02-08T15:30:47.301Z,3.90
2019-02-08T15:33:20.091Z,3.87
2019-02-08T15:35:52.243Z,2.13
2019-02-08T15:38:23.452Z,1.73
2019-02-08T15:40:57.493Z,3.07
2019-02-08T15:43:31.008Z,4.90
2019-02-08T15:46:04.431Z,3.73
2019-02-08T15:48:36.190Z,2.40
2019-02-08T15:51:12.693Z,2.77
2019-02-08T15:53:44.289Z,2.90
2019-02-08T15:56:18.751Z,13.73
2019-02-08T15:58:50.289Z,7.77
2019-02-08T16:01:24.210Z,3.63
2019-02-08T16:03:56.841Z,3.20
2019-02-08T16:06:30.367Z,2.60
2019-02-08T16:09:01.608Z,5.40
2019-02-08T16:11:35.351Z,7.87
2019-02-08T16:14:08.112Z,17.87
2019-02-08T16:16:41.453Z,26.73
2019-02-08T16:19:14.529Z,17.70
2019-02-08T16:21:45.720Z,8.33
2019-02-08T16:24:18.378Z,8.30
2019-02-08T16:26:52.360Z,6.47
2019-02-08T16:29:26.391Z,4.40
2019-02-08T16:32:00.384Z,5.53
2019-02-08T16:34:31.580Z,4.40
2019-02-08T16:37:05.573Z,3.07
2019-02-08T16:39:36.744Z,4.00
2019-02-08T16:42:08.016Z,3.40
2019-02-08T16:44:41.409Z,5.77
2019-02-08T16:47:13.749Z,15.00
2019-02-08T16:49:46.420Z,7.77
2019-02-08T16:52:20.723Z,12.60
2019-02-08T16:54:54.712Z,20.63
2019-02-08T16:57:28.558Z,10.70
2019-02-08T17:00:01.386Z,12.10
2019-02-08T17:02:34.862Z,18.23
2019-02-08T17:05:11.674Z,14.27
2019-02-08T17:07:44.687Z,13.83
2019-02-08T17:10:18.726Z,12.47
2019-02-08T17:12:52.896Z,8.90
2019-02-08T17:15:27.006Z,8.50
2019-02-08T17:18:00.144Z,8.50
2019-02-08T17:20:36.685Z,7.10
2019-02-08T17:23:09.052Z,11.60
2019-02-08T17:25:42.511Z,15.37
2019-02-08T17:28:34.615Z,19.77
2019-02-08T17:31:07.710Z,23.00
2019-02-08T17:33:41.648Z,23.10
2019-02-08T17:36:14.888Z,22.60
2019-02-08T17:38:48.643Z,18.10
2019-02-08T17:41:22.433Z,14.00
2019-02-08T17:43:57.603Z,13.73
2019-02-08T17:46:31.807Z,13.70
2019-02-08T17:49:03.149Z,10.27
2019-02-08T17:51:37.009Z,10.37
2019-02-08T17:54:10.827Z,10.27
2019-02-08T17:56:44.917Z,14.87
2019-02-08T17:59:17.779Z,16.23
2019-02-08T18:01:49.792Z,11.33
2019-02-08T18:04:25.189Z,7.87
2019-02-08T18:06:57.816Z,7.37
2019-02-08T18:09:31.047Z,10.27
2019-02-08T18:12:05.049Z,16.50
2019-02-08T18:14:37.864Z,15.60
2019-02-08T18:17:10.325Z,15.80
2019-02-08T18:19:44.033Z,14.23
2019-02-08T18:22:15.291Z,15.63
2019-02-08T18:24:48.994Z,13.80
2019-02-08T18:27:24.535Z,10.47
2019-02-08T18:29:57.018Z,11.53
2019-02-08T18:32:31.004Z,13.43
2019-02-08T18:35:04.289Z,13.10
2019-02-08T18:37:35.531Z,15.33
2019-02-08T18:40:07.789Z,17.80
2019-02-08T18:42:42.071Z,15.87
2019-02-08T18:45:19.694Z,15.70
2019-02-08T18:47:51.046Z,11.83
2019-02-08T18:50:27.373Z,12.67
2019-02-08T18:52:59.190Z,10.03
2019-02-08T18:55:33.198Z,8.70
2019-02-08T18:58:04.879Z,7.93
2019-02-08T19:00:40.481Z,10.30
2019-02-08T19:03:22.422Z,10.83
2019-02-08T19:06:01.106Z,10.10
2019-02-08T19:08:32.706Z,11.47
2019-02-08T19:11:06.296Z,10.13
2019-02-08T19:13:38.270Z,11.73
2019-02-08T19:16:11.155Z,11.87
2019-02-08T19:18:45.521Z,10.87
2019-02-08T19:21:19.225Z,10.80
2019-02-08T19:23:54.492Z,12.47
2019-02-08T19:26:27.279Z,13.47
2019-02-08T19:29:02.778Z,12.47
2019-02-08T19:31:35.321Z,11.67
2019-02-08T19:34:10.847Z,11.63
2019-02-08T19:36:43.341Z,11.67
2019-02-08T19:39:14.611Z,11.27
2019-02-08T19:41:48.192Z,10.70
2019-02-08T19:44:22.276Z,10.70
2019-02-08T19:46:58.010Z,9.20
2019-02-08T19:49:30.227Z,9.57
2019-02-08T19:52:04.174Z,6.60
2019-02-08T19:54:37.645Z,7.97
2019-02-08T19:57:14.683Z,7.50
2019-02-08T19:59:47.302Z,8.13
2019-02-08T20:02:19.447Z,7.27
2019-02-08T20:04:53.444Z,8.83
2019-02-08T20:07:26.755Z,9.07
2019-02-08T20:09:58.296Z,8.97
2019-02-08T20:12:32.263Z,8.10
2019-02-08T20:15:07.718Z,6.70
2019-02-08T20:17:41.458Z,6.20
2019-02-08T20:20:14.416Z,7.30
2019-02-08T20:22:45.656Z,8.20
2019-02-08T20:25:26.414Z,7.70
2019-02-08T20:27:59.621Z,6.37
2019-02-08T20:30:33.701Z,5.33
2019-02-08T20:33:08.054Z,4.80
2019-02-08T20:35:43.144Z,5.10
2019-02-08T20:38:15.641Z,4.70
2019-02-08T20:40:49.858Z,5.73
2019-02-08T20:43:23.618Z,4.50
2019-02-08T20:45:54.851Z,5.10
2019-02-08T20:48:28.448Z,4.33
2019-02-08T20:51:02.577Z,5.13
2019-02-08T20:53:34.773Z,5.00
2019-02-08T20:56:07.783Z,4.27
2019-02-08T20:58:49.810Z,5.27
2019-02-08T21:01:15.651Z,4.77
2019-02-08T21:03:47.654Z,4.47
2019-02-08T21:06:24.213Z,5.07
2019-02-08T21:08:57.782Z,13.47
2019-02-08T21:11:31.703Z,14.17
2019-02-08T21:14:05.621Z,5.90
2019-02-08T21:16:38.069Z,6.30
2019-02-08T21:19:12.910Z,6.67
2019-02-08T21:21:45.663Z,6.20
2019-02-08T21:24:18.796Z,6.33
2019-02-08T21:26:51.042Z,6.00
2019-02-08T21:29:24.473Z,5.70
2019-02-08T21:31:58.091Z,5.00
2019-02-08T21:34:31.702Z,4.33
2019-02-08T21:37:07.443Z,4.97
2019-02-08T21:39:39.089Z,6.60
2019-02-08T21:42:10.994Z,9.50
2019-02-08T21:44:42.224Z,11.20
2019-02-08T21:47:15.861Z,10.63
2019-02-08T21:49:47.775Z,12.33
2019-02-08T21:52:20.681Z,8.47
2019-02-08T21:54:51.978Z,6.80
2019-02-08T21:57:25.731Z,6.30
2019-02-08T21:59:56.938Z,5.70
2019-02-08T22:02:28.148Z,5.50
2019-02-08T22:05:01.078Z,6.23
2019-02-08T22:07:34.845Z,6.07
2019-02-08T22:10:07.822Z,4.80
2019-02-08T22:12:40.719Z,4.97
2019-02-08T22:15:18.579Z,5.70
2019-02-08T22:17:51.999Z,4.40
2019-02-08T22:20:26.399Z,4.20
2019-02-08T22:22:59.945Z,5.13
2019-02-08T22:25:33.595Z,4.60
2019-02-08T22:28:08.862Z,4.17
2019-02-08T22:30:43.757Z,3.73
2019-02-08T22:33:14.961Z,4.33
2019-02-08T22:35:47.978Z,4.60
2019-02-08T22:38:21.701Z,3.87
2019-02-08T22:40:54.113Z,4.10
2019-02-08T22:43:25.320Z,4.33
2019-02-08T22:45:56.533Z,5.70
2019-02-08T22:48:27.765Z,5.37
2019-02-08T22:51:01.021Z,5.93
2019-02-08T22:53:36.818Z,4.93
2019-02-08T22:56:08.990Z,5.50
2019-02-08T22:58:43.448Z,5.43
2019-02-08T23:01:31.975Z,4.80
2019-02-08T23:04:05.007Z,6.37
2019-02-08T23:06:44.471Z,4.90
2019-02-08T23:09:20.861Z,4.70
2019-02-08T23:11:54.195Z,5.17
2019-02-08T23:14:28.213Z,5.00
2019-02-08T23:17:02.152Z,5.30
2019-02-08T23:19:36.128Z,5.20
2019-02-08T23:22:10.148Z,5.07
2019-02-08T23:24:42.948Z,5.30
2019-02-08T23:27:15.215Z,4.73
2019-02-08T23:29:50.675Z,6.10
2019-02-08T23:32:23.261Z,5.17
2019-02-08T23:34:54.495Z,6.07
2019-02-08T23:37:26.462Z,5.17
2019-02-08T23:39:59.241Z,6.00
2019-02-08T23:42:32.209Z,6.13
2019-02-08T23:45:06.647Z,8.90
2019-02-08T23:47:38.493Z,8.73
2019-02-08T23:50:13.975Z,7.53
2019-02-08T23:52:47.367Z,6.17
2019-02-08T23:55:20.539Z,6.10
2019-02-08T23:57:54.069Z,6.00
